Time;durP1;ratioP1;P1;durP2;ratioP2;P2;SDS_P1;SDS_P2;PMS_P1;PMS_P2;Temp;Humidity;BMP_temperature;BMP_pressure;BME280_temperature;BME280_humidity;BME280_pressure;Samples;Min_cycle;Max_cycle;Signal;HPM_P1;HPM_P2
2021/08/03 00:00:35;;;;;;;1.00;0.98;;;;;;;27.04;38.03;98380.56;4958698;28;20062;-90
2021/08/03 00:03:06;;;;;;;1.37;1.07;;;;;;;27.14;38.49;98409.19;4975486;28;20035;-91
2021/08/03 00:05:36;;;;;;;1.15;1.05;;;;;;;27.22;39.33;98412.06;4976279;28;20065;-90
2021/08/03 00:08:22;;;;;;;1.58;1.23;;;;;;;26.96;39.31;98379.75;4959088;28;20042;-91
2021/08/03 00:10:49;;;;;;;1.15;1.05;;;;;;;27.11;39.19;98411.06;4959207;28;20042;-91
2021/08/03 00:13:16;;;;;;;0.60;0.60;;;;;;;27.07;38.98;98426.91;4975864;28;20034;-88
2021/08/03 00:15:42;;;;;;;1.42;1.13;;;;;;;27.04;39.26;98416.69;4975386;28;20031;-90
2021/08/03 00:18:08;;;;;;;1.67;1.25;;;;;;;26.86;39.36;98401.41;4957952;28;20509;-89
2021/08/03 00:20:35;;;;;;;12.93;1.63;;;;;;;26.81;41.46;98404.38;4975071;28;20031;-89
2021/08/03 00:23:01;;;;;;;3.13;1.40;;;;;;;26.57;42.13;98383.59;4958051;28;20101;-89
2021/08/03 00:25:28;;;;;;;0.40;0.40;;;;;;;26.82;42.65;98423.69;4974989;28;20031;-88
2021/08/03 00:27:54;;;;;;;1.50;0.88;;;;;;;26.77;42.08;98427.41;4957770;28;20070;-90
2021/08/03 00:30:21;;;;;;;1.50;0.70;;;;;;;26.63;42.75;98406.91;4958055;28;20031;-93
2021/08/03 00:32:48;;;;;;;0.70;0.70;;;;;;;26.73;44.51;98418.50;4958371;28;20054;-92
2021/08/03 00:35:13;;;;;;;0.88;0.80;;;;;;;26.70;42.36;98420.34;4958235;28;20034;-91
2021/08/03 00:37:39;;;;;;;13.90;1.58;;;;;;;26.77;44.90;98418.91;4957830;28;20486;-89
2021/08/03 00:40:07;;;;;;;0.98;0.88;;;;;;;26.66;45.37;98413.50;4975125;28;20066;-90
2021/08/03 00:42:33;;;;;;;5.35;0.57;;;;;;;26.55;44.52;98389.06;4957864;28;20081;-90
2021/08/03 00:44:59;;;;;;;1.70;1.17;;;;;;;26.50;44.81;98397.69;4958123;28;20027;-88
2021/08/03 00:47:25;;;;;;;1.75;1.40;;;;;;;26.62;44.89;98415.94;4957614;28;20034;-90
2021/08/03 00:49:50;;;;;;;1.20;1.10;;;;;;;26.25;45.63;98377.44;4958456;28;20027;-89
2021/08/03 00:52:17;;;;;;;3.53;1.02;;;;;;;26.54;45.35;98421.53;4961049;28;20035;-87
2021/08/03 00:54:43;;;;;;;1.33;0.80;;;;;;;26.40;46.62;98408.78;4961478;28;20031;-89
2021/08/03 00:57:11;;;;;;;28.27;1.73;;;;;;;26.29;45.64;98389.94;4957740;28;20463;-92
2021/08/03 00:59:37;;;;;;;3.05;1.70;;;;;;;26.46;47.93;98414.31;4957428;28;20035;-90
2021/08/03 01:02:04;;;;;;;0.70;0.70;;;;;;;26.26;46.94;98399.56;4957585;28;20090;-89
2021/08/03 01:04:29;;;;;;;0.73;0.73;;;;;;;26.38;46.98;98414.22;4957571;28;20029;-92
2021/08/03 01:07:04;;;;;;;1.10;1.10;;;;;;;26.08;47.76;98379.91;4957365;28;20031;-88
2021/08/03 01:10:04;;;;;;;0.55;0.55;;;;;;;26.15;48.83;98413.97;4975076;28;20093;-90
2021/08/03 01:12:57;;;;;;;0.65;0.65;;;;;;;26.03;49.00;98406.28;4974684;28;20031;-87
2021/08/03 01:15:41;;;;;;;2.03;1.17;;;;;;;26.17;47.87;98430.38;4957783;28;20494;-88
2021/08/03 01:18:15;;;;;;;3.08;2.08;;;;;;;26.09;48.31;98438.06;4957343;28;20035;-88
2021/08/03 01:20:59;;;;;;;1.40;0.75;;;;;;;25.83;50.29;98417.00;4957109;28;20121;-89
2021/08/03 01:24:15;;;;;;;2.17;1.55;;;;;;;25.96;50.62;98435.25;4957080;28;20092;-88
2021/08/03 01:27:18;;;;;;;2.38;1.00;;;;;;;25.89;52.32;98437.44;4916846;28;20059;-90
2021/08/03 01:29:45;;;;;;;2.00;0.55;;;;;;;25.82;52.78;98440.19;4956968;28;20086;-92
2021/08/03 01:32:13;;;;;;;0.65;0.65;;;;;;;25.62;53.60;98401.28;4956944;28;20029;-88
2021/08/03 01:34:41;;;;;;;;;;;;;;;25.78;52.69;98432.03;4974519;28;20038;-92
2021/08/03 01:37:07;;;;;;;1.30;1.08;;;;;;;25.45;52.17;98401.56;4974111;28;19917;-91
2021/08/03 01:39:36;;;;;;;1.88;1.20;;;;;;;25.44;50.33;98391.56;4957093;28;20034;-92
2021/08/03 01:42:04;;;;;;;2.78;1.98;;;;;;;25.50;52.18;98401.47;4974123;28;20034;-91
2021/08/03 01:44:31;;;;;;;;;;;;;;;25.77;50.83;98435.41;4974605;28;20030;-89
2021/08/03 01:46:59;;;;;;;24.00;1.10;;;;;;;25.68;49.94;98433.78;4956911;28;19910;-91
2021/08/03 01:49:25;;;;;;;0.30;0.30;;;;;;;25.62;51.69;98424.66;4956988;28;20039;-90
2021/08/03 01:51:51;;;;;;;1.30;1.25;;;;;;;25.51;51.44;98407.88;4974105;28;20393;-91
2021/08/03 01:54:19;;;;;;;1.05;1.05;;;;;;;25.52;51.72;98421.50;4956865;28;20031;-88
2021/08/03 01:56:46;;;;;;;3.10;1.00;;;;;;;25.66;51.86;98447.72;4956613;28;20070;-90
2021/08/03 01:59:13;;;;;;;0.73;0.68;;;;;;;25.56;51.17;98432.47;4957055;28;20031;-91
2021/08/03 02:01:39;;;;;;;0.80;0.80;;;;;;;25.67;50.95;98449.25;4956897;28;20027;-88
2021/08/03 02:04:06;;;;;;;1.42;0.98;;;;;;;25.63;50.56;98462.97;4957006;28;20027;-89
2021/08/03 02:06:32;;;;;;;0.95;0.93;;;;;;;25.42;50.19;98428.13;4973843;28;20101;-90
2021/08/03 02:08:59;;;;;;;3.22;1.30;;;;;;;25.30;50.64;98401.38;4956731;28;20156;-89
2021/08/03 02:11:27;;;;;;;4.47;1.40;;;;;;;25.48;50.48;98440.88;4958354;28;20049;-90
2021/08/03 02:13:52;;;;;;;;;;;;;;;25.62;49.17;98469.91;4960800;28;20479;-90
2021/08/03 02:16:18;;;;;;;3.22;2.03;;;;;;;25.35;49.70;98435.22;4960223;28;19977;-89
2021/08/03 02:18:46;;;;;;;0.57;0.57;;;;;;;25.45;50.46;98483.63;4960171;28;20045;-90
2021/08/03 02:21:15;;;;;;;0.90;0.90;;;;;;;25.46;51.26;98471.00;4960151;28;20026;-89
2021/08/03 02:23:41;;;;;;;0.95;0.88;;;;;;;25.47;51.86;98470.47;4959990;28;20034;-89
2021/08/03 02:26:09;;;;;;;0.68;0.68;;;;;;;25.43;52.49;98491.91;4959742;28;20479;-89
2021/08/03 02:28:34;;;;;;;0.63;0.63;;;;;;;25.02;53.30;98439.44;4959670;28;20053;-89
2021/08/03 02:31:04;;;;;;;1.55;1.38;;;;;;;25.36;53.63;98501.78;4977072;28;20027;-89
2021/08/03 02:33:36;;;;;;;1.73;1.63;;;;;;;25.29;54.86;98501.66;4959672;28;20038;-91
2021/08/03 02:36:12;;;;;;;1.02;1.02;;;;;;;25.13;55.05;98478.81;4959700;28;20026;-87
2021/08/03 02:38:45;;;;;;;7.72;1.35;;;;;;;25.09;55.63;98480.44;4959608;28;20026;-91
2021/08/03 02:41:12;;;;;;;2.75;1.25;;;;;;;24.89;56.10;98447.16;4959770;28;20026;-88
2021/08/03 02:43:39;;;;;;;5.13;1.10;;;;;;;24.79;55.64;98448.81;4959654;28;20031;-89
2021/08/03 02:46:05;;;;;;;5.97;1.80;;;;;;;25.06;56.21;98502.09;4959608;28;20030;-88
2021/08/03 02:48:34;;;;;;;0.73;0.70;;;;;;;24.67;56.05;98445.41;4959420;28;20458;-89
2021/08/03 02:51:00;;;;;;;20.00;0.77;;;;;;;24.85;56.13;98494.69;4959271;28;20109;-90
2021/08/03 02:53:35;;;;;;;1.00;0.93;;;;;;;24.69;55.69;98483.16;4959722;28;20073;-87
2021/08/03 02:56:07;;;;;;;0.47;0.47;;;;;;;24.80;56.12;98501.97;4959552;28;20031;-87
2021/08/03 02:58:58;;;;;;;14.02;1.67;;;;;;;24.73;56.04;98500.53;4959503;28;20158;-88
2021/08/03 03:01:27;;;;;;;0.35;0.35;;;;;;;24.31;58.24;98471.16;4959289;28;20027;-88
2021/08/03 03:03:56;;;;;;;2.13;0.60;;;;;;;24.61;58.20;98507.66;4959254;28;20114;-90
2021/08/03 03:06:24;;;;;;;1.10;1.00;;;;;;;24.65;57.78;98510.94;4959055;28;20507;-89
2021/08/03 03:08:50;;;;;;;2.90;1.17;;;;;;;24.62;56.94;98508.44;4976349;28;20035;-92
2021/08/03 03:11:18;;;;;;;6.47;1.02;;;;;;;24.49;57.16;98497.84;4959017;28;20053;-90
2021/08/03 03:13:55;;;;;;;1.50;1.40;;;;;;;24.63;57.03;98524.84;4959176;28;20062;-91
2021/08/03 03:16:22;;;;;;;1.77;1.67;;;;;;;24.43;56.79;98496.41;4959174;28;20109;-88
2021/08/03 03:18:50;;;;;;;0.65;0.65;;;;;;;24.45;57.30;98522.81;4959211;28;20038;-86
2021/08/03 03:21:21;;;;;;;3.80;1.23;;;;;;;24.47;57.28;98530.75;4958630;28;20058;-88
2021/08/03 03:23:52;;;;;;;1.05;0.95;;;;;;;24.48;57.41;98538.69;4958945;28;20057;-89
2021/08/03 03:26:19;;;;;;;0.52;0.52;;;;;;;24.45;56.43;98545.41;4958785;28;20033;-92
2021/08/03 03:28:45;;;;;;;1.10;1.00;;;;;;;24.00;55.57;98485.94;4976075;28;20058;-87
2021/08/03 03:31:11;;;;;;;1.33;0.77;;;;;;;24.45;55.47;98555.94;4958559;28;20039;-88
2021/08/03 03:33:40;;;;;;;0.30;0.30;;;;;;;24.57;54.60;98579.91;4958809;28;20118;-90
2021/08/03 03:36:07;;;;;;;0.73;0.73;;;;;;;24.65;53.93;98581.56;4959487;28;20027;-88
2021/08/03 03:38:37;;;;;;;1.17;1.08;;;;;;;24.63;53.83;98567.22;4960131;28;20171;-88
2021/08/03 03:41:04;;;;;;;1.00;0.95;;;;;;;24.69;54.07;98576.38;4975640;28;20094;-91
2021/08/03 03:43:30;;;;;;;11.93;2.53;;;;;;;24.73;53.39;98574.00;4975721;28;20030;-90
2021/08/03 03:46:03;;;;;;;1.50;1.08;;;;;;;24.75;54.52;98573.47;4958750;28;20129;-88
2021/08/03 03:48:33;;;;;;;0.73;0.73;;;;;;;24.87;54.44;98588.97;4958784;28;20515;-92
2021/08/03 03:51:01;;;;;;;2.60;1.23;;;;;;;24.73;53.91;98556.28;4958424;28;20066;-90
2021/08/03 03:53:46;;;;;;;0.55;0.55;;;;;;;24.83;54.20;98574.38;4975318;28;20031;-91
2021/08/03 03:56:15;;;;;;;1.13;0.63;;;;;;;24.71;54.80;98547.59;4958438;28;20027;-88
2021/08/03 03:58:43;;;;;;;1.42;1.33;;;;;;;24.67;54.98;98535.84;4958170;28;20114;-88
2021/08/03 04:01:23;;;;;;;1.52;1.27;;;;;;;24.73;55.75;98567.59;4958171;28;20038;-90
2021/08/03 04:03:51;;;;;;;2.78;1.08;;;;;;;24.85;55.85;98591.56;4958102;28;20030;-87
2021/08/03 04:06:17;;;;;;;3.85;2.08;;;;;;;24.93;56.47;98591.72;4975258;28;20105;-88
2021/08/03 04:08:42;;;;;;;0.50;0.50;;;;;;;24.98;55.25;98573.91;4958047;28;20455;-89
2021/08/03 04:11:13;;;;;;;2.40;1.48;;;;;;;25.11;55.16;98573.97;4958119;28;20034;-89
2021/08/03 04:13:46;;;;;;;0.25;0.25;;;;;;;25.21;55.06;98571.47;4958261;28;20037;-88
2021/08/03 04:16:12;;;;;;;0.38;0.30;;;;;;;25.20;54.48;98553.00;4957845;28;20565;-88
2021/08/03 04:18:37;;;;;;;1.27;0.60;;;;;;;25.30;54.06;98568.25;4957740;28;20026;-87
2021/08/03 04:21:03;;;;;;;0.43;0.43;;;;;;;25.35;54.66;98584.34;4958067;28;20411;-89
2021/08/03 04:23:29;;;;;;;6.13;0.80;;;;;;;25.23;54.49;98561.16;4957906;28;20034;-89
2021/08/03 04:25:54;;;;;;;0.65;0.65;;;;;;;25.44;54.82;98601.66;4957713;28;20035;-88
2021/08/03 04:28:20;;;;;;;0.43;0.43;;;;;;;25.24;54.90;98559.88;4974810;28;20062;-88
2021/08/03 04:30:46;;;;;;;1.85;0.88;;;;;;;25.55;54.70;98589.41;4957712;28;20022;-88
2021/08/03 04:33:12;;;;;;;0.60;0.60;;;;;;;25.58;54.77;98594.00;4956864;28;20035;-89
2021/08/03 04:35:37;;;;;;;0.73;0.73;;;;;;;25.83;54.38;98612.31;4974828;28;20396;-88
2021/08/03 04:38:03;;;;;;;0.65;0.43;;;;;;;25.80;54.33;98612.66;4958002;28;20117;-90
2021/08/03 04:40:28;;;;;;;2.55;0.88;;;;;;;25.91;54.70;98616.03;4957465;28;20026;-89
2021/08/03 04:42:54;;;;;;;0.95;0.95;;;;;;;25.82;54.51;98596.63;4974745;28;20034;-87
2021/08/03 04:45:20;;;;;;;1.48;1.13;;;;;;;26.04;54.14;98601.09;4974583;28;20106;-88
2021/08/03 04:47:47;;;;;;;1.30;0.85;;;;;;;26.09;54.08;98603.06;4957335;28;20058;-88
2021/08/03 04:50:17;;;;;;;0.52;0.50;;;;;;;26.38;53.27;98606.88;4957445;28;20034;-91
2021/08/03 04:52:42;;;;;;;0.32;0.32;;;;;;;26.53;52.95;98623.28;4957388;28;20039;-87
2021/08/03 04:55:09;;;;;;;7.03;1.17;;;;;;;26.61;52.79;98613.56;4957400;28;20029;-88
2021/08/03 04:57:35;;;;;;;0.38;0.38;;;;;;;26.35;52.56;98585.28;4974505;28;20037;-88
2021/08/03 05:00:01;;;;;;;1.52;1.20;;;;;;;26.61;51.68;98618.47;4956943;28;20022;-89
2021/08/03 05:02:26;;;;;;;0.73;0.60;;;;;;;26.84;51.72;98638.59;4956946;28;20030;-87
2021/08/03 05:04:52;;;;;;;1.40;0.98;;;;;;;26.86;51.92;98635.97;4956832;28;20029;-89
2021/08/03 05:07:17;;;;;;;0.60;0.60;;;;;;;26.83;51.69;98625.72;4957280;28;20030;-86
2021/08/03 05:09:43;;;;;;;0.93;0.75;;;;;;;26.66;51.83;98628.94;4957124;28;20034;-87
2021/08/03 05:12:08;;;;;;;0.35;0.35;;;;;;;26.62;52.52;98617.94;4957159;28;20031;-90
2021/08/03 05:14:34;;;;;;;1.20;1.08;;;;;;;26.77;52.44;98631.50;4973885;28;20467;-84
2021/08/03 05:16:59;;;;;;;1.55;1.45;;;;;;;26.89;52.42;98618.63;4973849;28;20031;-86
2021/08/03 05:19:25;;;;;;;2.72;1.52;;;;;;;27.04;51.92;98601.78;4957357;28;20034;-87
2021/08/03 05:21:50;;;;;;;0.80;0.80;;;;;;;27.25;51.51;98601.03;4956792;28;20057;-86
2021/08/03 05:24:15;;;;;;;0.65;0.60;;;;;;;27.63;50.53;98649.63;4956848;28;20035;-90
2021/08/03 05:26:41;;;;;;;1.60;1.30;;;;;;;27.89;50.40;98635.25;4956777;28;20059;-87
2021/08/03 05:29:06;;;;;;;7.00;1.17;;;;;;;28.18;50.03;98636.81;4957133;28;20061;-85
2021/08/03 05:31:32;;;;;;;2.05;1.40;;;;;;;28.53;49.26;98640.19;4956820;28;20118;-87
2021/08/03 05:33:57;;;;;;;1.08;1.05;;;;;;;28.80;48.48;98624.41;4957397;28;20450;-90
2021/08/03 05:36:23;;;;;;;4.93;0.88;;;;;;;28.96;47.97;98630.91;4974168;28;20038;-87
2021/08/03 05:38:48;;;;;;;1.17;0.60;;;;;;;29.27;46.75;98628.88;4957185;28;20034;-86
2021/08/03 05:41:14;;;;;;;1.13;0.88;;;;;;;29.68;45.59;98631.38;4956997;28;20466;-87
2021/08/03 05:43:40;;;;;;;1.08;0.65;;;;;;;29.99;45.43;98637.09;4973958;28;20126;-89
2021/08/03 05:46:06;;;;;;;0.63;0.63;;;;;;;30.23;44.98;98630.75;4976636;28;20042;-87
2021/08/03 05:48:31;;;;;;;0.55;0.55;;;;;;;30.90;43.02;98626.16;4960453;28;20090;-87
2021/08/03 05:50:57;;;;;;;0.60;0.30;;;;;;;31.24;41.98;98637.00;4977354;28;20031;-87
2021/08/03 05:53:22;;;;;;;0.98;0.98;;;;;;;31.83;40.00;98584.94;4960243;28;20435;-86
2021/08/03 05:55:48;;;;;;;0.50;0.50;;;;;;;32.58;39.27;98634.84;4960412;28;20031;-88
2021/08/03 05:58:13;;;;;;;1.77;1.30;;;;;;;33.12;37.51;98627.06;4977566;28;20058;-86
2021/08/03 06:00:42;;;;;;;0.77;0.77;;;;;;;33.26;37.09;98618.88;4960143;28;20022;-86
2021/08/03 06:03:08;;;;;;;0.47;0.47;;;;;;;33.20;37.15;98640.56;4960194;28;20054;-87
2021/08/03 06:05:35;;;;;;;0.13;0.13;;;;;;;33.93;36.30;98621.25;4959991;28;20427;-86
2021/08/03 06:08:01;;;;;;;1.60;1.00;;;;;;;34.09;35.27;98648.28;4960301;28;20478;-88
2021/08/03 06:10:30;;;;;;;0.80;0.70;;;;;;;34.87;34.44;98643.34;4959949;28;20031;-87
2021/08/03 06:12:56;;;;;;;1.85;0.60;;;;;;;35.26;33.60;98641.91;4959947;28;20023;-92
2021/08/03 06:15:21;;;;;;;0.80;0.77;;;;;;;35.20;32.85;98627.13;4960166;28;20037;-87
2021/08/03 06:17:56;;;;;;;0.50;0.50;;;;;;;35.77;32.45;98631.13;4960305;28;20066;-87
2021/08/03 06:20:21;;;;;;;2.88;1.05;;;;;;;36.67;31.07;98650.94;4962073;28;20117;-88
2021/08/03 06:22:48;;;;;;;1.00;0.63;;;;;;;36.69;30.75;98642.47;4977908;28;20102;-87
2021/08/03 06:25:15;;;;;;;0.83;0.60;;;;;;;36.54;31.36;98624.81;4960603;28;20101;-87
2021/08/03 06:27:42;;;;;;;0.30;0.30;;;;;;;37.21;30.24;98643.59;4959749;28;20295;-90
2021/08/03 06:30:08;;;;;;;0.28;0.28;;;;;;;37.69;29.05;98600.53;4960128;28;20191;-87
2021/08/03 06:32:34;;;;;;;11.88;1.08;;;;;;;37.81;28.97;98618.56;4977026;28;20045;-89
2021/08/03 06:35:00;;;;;;;0.57;0.57;;;;;;;37.74;28.00;98625.34;4960397;28;20027;-91
2021/08/03 06:37:26;;;;;;;1.17;1.10;;;;;;;37.44;29.49;98644.38;4960269;28;20023;-89
2021/08/03 06:39:52;;;;;;;0.77;0.43;;;;;;;38.00;28.46;98639.88;4959845;28;20034;-92
